Silver City, NM

5:56 AM MDT on October 25, 2014 (GMT -0600)
Deming Municipal | Change Station
CLOSE
Current Station
Airport
Location: Deming,
Elevation: 4311 ft
Nearby Weather Stations

Elev 4311 ft 32.26 °N, 107.72 °W | Updated 1 hour ago

Clear
Clear
50 °F
Feels Like 50 °F
N
5
Wind Variable Wind from West

Today
High -- | Low -- °F
--% Chance of Precip.
Yesterday
High -- | Low -- °F
Precip. -- in
7:24 AM 6:28 PM
Waxing Crescent, 3% visible
Pressure 30.05 in
Visibility 10.0 miles
Clouds Clear
Dew Point 44 °F
Humidity 80%
Rainfall 0.00 in
Snow Depth 0 in
UV 0 out of 12
Pollen 5.00 out of 12
Air Quality Not available.
Flu Activity Sporadic
METAR KDMN 251053Z AUTO 28004KT 10SM CLR 10/07 A3022 RMK AO2 SLP175 T01000067

More Conditions Fewer Conditions

Pressure 30.05 in
Visibility 10.0 miles
Clouds Clear
Dew Point 44 °F
Humidity 80%
Rainfall 0.00 in
Snow Depth 0 in
UV 0 out of 12
Pollen 5.00 out of 12
Air Quality Not available.
Flu Activity Sporadic
METAR KDMN 251053Z AUTO 28004KT 10SM CLR 10/07 A3022 RMK AO2 SLP175 T01000067

More Conditions Fewer Conditions

10-Day Weather Forecast

Almanac

Astronomy

Oct. 25, 2014 Rise Set
Actual Time 7:24 AM MDT 6:28 PM MDT
Civil Twilight 6:59 AM MDT 6:53 PM MDT
Nautical Twilight 6:30 AM MDT 7:22 PM MDT
Astronomical Twilight 6:01 AM MDT 7:51 PM MDT
Moon 9:02 AM MDT 7:58 PM MDT
Length of Visible Light 11h 54m
Length of Day
11h 03m
Tomorrow will be 1m 50s shorter.
Waxing Crescent, 3% of the Moon is Illuminated
Today
Waxing Crescent
Oct 30
First Quarter
Nov 6
Full
Nov 14
Last Quarter
Nov 22
New

Today's Extremes

State Highs State Lows

Community

WunderPhotos

Upload Photos

1,764,812 photos uploaded!

Nearby

Snow Depth

Station Depth Elevation
Signal Peak 0 in 8360 ft
McKnight Cabin 0 in 9240 ft
Lookout Mountain 0 in 8500 ft
Silver Creek Divide 1 in 9000 ft
Frisco Divide 1 in 8000 ft

Earthquake Activity

City Distance Mag. Time & Date
No recent earthquake activity has been reported nearby.
Minimum magnitude displayed is 2.5.

Coastal Water Temperatures

Place Temperature
No Stations Reporting

Nearby Weather Stations